Bee House, Texas
Current Conditions -  °F | °C
As of 8:35 AM on Tuesday 27 Jan 2015 (Local Time) from KMNZ Reporting Station
Clear Clear  
Wind Chill: 52°   Ceiling: Unl
Heat Index: 52°   Visibility: 10mi
Dew Point: 37°   Wind: 10mph
Humidity: 58%   Direction: 290°WNW
Pressure: 30.19"   Gusts: NA
Location:  31.463°N, 98.243°W
Report Text: KMNZ 271435Z AUTO 29009KT 10SM CLR 11/03 A3019 RMK AO2 T01100030
Loading
Personal Weather Stations






























Interactive Weather Map New forecast layout! Learn more

10-Day Weather Forecast

Advertisements
Track Severe Weather on mobile